Time,TemperatureF,DewpointF,PressureIn,WindDirection,WindDirectionDegrees,WindSpeedMPH,WindSpeedGustMPH,Humidity,HourlyPrecipIn,Conditions,Clouds,dailyrainin,SolarRadiationWatts/m^2,SoftwareType,DateUTC
2013-06-13 00:00:00,65.0,58.0,29.84,SE,130,1.0,4.0,78,0.00,,---,0.00,0.00,VWS V14.01,2013-06-13 04:00:00,
2013-06-13 00:26:00,64.3,58.7,29.83,SE,130,1.0,7.0,82,0.00,,---,0.00,0.00,VWS V14.01,2013-06-13 04:26:00,
2013-06-13 00:30:00,64.3,58.7,29.83,SE,130,1.0,7.0,82,0.00,,---,0.00,0.00,VWS V14.01,2013-06-13 04:30:00,
2013-06-13 00:56:00,63.4,58.5,29.82,SE,138,0.0,6.0,84,0.01,,---,0.01,0.00,VWS V14.01,2013-06-13 04:56:00,
2013-06-13 01:00:00,63.4,58.5,29.82,SE,138,0.0,6.0,84,0.01,,---,0.01,0.00,VWS V14.01,2013-06-13 05:00:00,
2013-06-13 01:26:00,63.1,58.8,29.80,ESE,119,2.0,5.0,86,0.01,,---,0.01,0.00,VWS V14.01,2013-06-13 05:26:00,
2013-06-13 01:30:00,63.1,58.8,29.80,ESE,119,2.0,5.0,86,0.01,,---,0.01,0.00,VWS V14.01,2013-06-13 05:30:00,
2013-06-13 01:56:00,63.5,58.9,29.79,ESE,120,0.0,5.0,85,0.01,,---,0.01,0.00,VWS V14.01,2013-06-13 05:56:00,
2013-06-13 02:00:00,63.5,58.9,29.79,ESE,120,0.0,5.0,85,0.01,,---,0.01,0.00,VWS V14.01,2013-06-13 06:00:00,
2013-06-13 02:26:00,63.8,58.5,29.78,SE,127,0.0,6.0,83,0.00,,---,0.01,0.00,VWS V14.01,2013-06-13 06:26:00,
2013-06-13 02:30:00,63.8,58.5,29.78,SE,127,0.0,6.0,83,0.00,,---,0.01,0.00,VWS V14.01,2013-06-13 06:30:00,
2013-06-13 02:56:00,63.5,58.2,29.77,SE,130,4.0,6.0,83,0.00,,---,0.01,0.00,VWS V14.01,2013-06-13 06:56:00,
2013-06-13 03:00:00,63.5,58.2,29.77,SE,130,4.0,6.0,83,0.00,,---,0.01,0.00,VWS V14.01,2013-06-13 07:00:00,
2013-06-13 03:26:00,63.4,57.8,29.75,SE,140,2.0,9.0,82,0.00,,---,0.01,0.00,VWS V14.01,2013-06-13 07:26:00,
2013-06-13 03:30:00,63.4,57.8,29.75,SE,140,2.0,9.0,82,0.00,,---,0.01,0.00,VWS V14.01,2013-06-13 07:30:00,
2013-06-13 03:56:00,63.4,57.5,29.73,ESE,113,2.0,11.0,81,0.00,,---,0.01,0.00,VWS V14.01,2013-06-13 07:56:00,
2013-06-13 04:00:00,63.4,57.5,29.73,ESE,113,2.0,11.0,81,0.00,,---,0.01,0.00,VWS V14.01,2013-06-13 08:00:00,
2013-06-13 04:26:00,63.3,57.0,29.71,ESE,118,2.0,11.0,80,0.00,,---,0.01,0.00,VWS V14.01,2013-06-13 08:26:00,
2013-06-13 04:30:00,63.3,57.0,29.71,ESE,118,2.0,11.0,80,0.00,,---,0.01,0.00,VWS V14.01,2013-06-13 08:30:00,
2013-06-13 04:56:00,62.8,56.9,29.71,ESE,107,0.0,8.0,81,0.00,,---,0.01,0.00,VWS V14.01,2013-06-13 08:56:00,
2013-06-13 05:00:00,62.8,56.9,29.71,ESE,107,0.0,8.0,81,0.00,,---,0.01,0.00,VWS V14.01,2013-06-13 09:00:00,
2013-06-13 05:26:00,62.8,56.9,29.70,SSE,155,5.0,12.0,81,0.00,,---,0.01,0.00,VWS V14.01,2013-06-13 09:26:00,
2013-06-13 05:30:00,62.8,56.9,29.70,SSE,155,5.0,12.0,81,0.00,,---,0.01,0.00,VWS V14.01,2013-06-13 09:30:00,
2013-06-13 05:56:00,63.0,56.7,29.69,SE,126,1.0,10.0,80,0.00,,---,0.01,0.00,VWS V14.01,2013-06-13 09:56:00,
2013-06-13 06:00:00,63.0,56.7,29.69,SE,126,1.0,10.0,80,0.00,,---,0.01,0.00,VWS V14.01,2013-06-13 10:00:00,
2013-06-13 06:26:00,63.0,56.7,29.67,East,94,4.0,11.0,80,0.00,,---,0.01,0.00,VWS V14.01,2013-06-13 10:26:00,
2013-06-13 06:30:00,63.0,56.7,29.67,East,94,4.0,11.0,80,0.00,,---,0.01,0.00,VWS V14.01,2013-06-13 10:30:00,
2013-06-13 06:56:00,62.8,57.2,29.66,ESE,109,0.0,13.0,82,0.00,,---,0.01,18.00,VWS V14.01,2013-06-13 10:56:00,
2013-06-13 07:00:00,62.8,57.2,29.66,ESE,109,0.0,13.0,82,0.00,,---,0.01,18.00,VWS V14.01,2013-06-13 11:00:00,
2013-06-13 07:26:00,62.6,57.4,29.65,ESE,116,4.0,7.0,83,0.01,,---,0.02,14.00,VWS V14.01,2013-06-13 11:26:00,
2013-06-13 07:30:00,62.6,57.4,29.65,ESE,116,4.0,7.0,83,0.01,,---,0.02,14.00,VWS V14.01,2013-06-13 11:30:00,
2013-06-13 07:56:00,61.2,57.9,29.65,East,89,2.0,8.0,89,0.09,,---,0.10,18.00,VWS V14.01,2013-06-13 11:56:00,
2013-06-13 08:00:00,61.2,57.9,29.65,East,89,2.0,8.0,89,0.09,,---,0.10,18.00,VWS V14.01,2013-06-13 12:00:00,
2013-06-13 08:26:00,60.1,58.1,29.64,East,86,2.0,8.0,93,0.40,,---,0.41,21.00,VWS V14.01,2013-06-13 12:26:00,
2013-06-13 08:30:00,60.1,58.1,29.64,East,86,2.0,8.0,93,0.40,,---,0.41,21.00,VWS V14.01,2013-06-13 12:30:00,
2013-06-13 08:56:00,60.0,58.3,29.62,East,81,2.0,8.0,94,0.45,,---,0.47,39.00,VWS V14.01,2013-06-13 12:56:00,
2013-06-13 09:00:00,60.0,58.3,29.62,East,81,2.0,8.0,94,0.45,,---,0.47,39.00,VWS V14.01,2013-06-13 13:00:00,
2013-06-13 09:26:00,60.0,58.3,29.61,ENE,75,5.0,10.0,94,0.45,,---,0.55,53.00,VWS V14.01,2013-06-13 13:26:00,
2013-06-13 09:30:00,60.0,58.3,29.61,ENE,75,5.0,10.0,94,0.45,,---,0.55,53.00,VWS V14.01,2013-06-13 13:30:00,
2013-06-13 09:56:00,60.0,58.3,29.61,ENE,59,5.0,12.0,94,0.20,,---,0.61,63.00,VWS V14.01,2013-06-13 13:56:00,
2013-06-13 10:00:00,60.0,58.3,29.61,ENE,59,5.0,12.0,94,0.20,,---,0.61,63.00,VWS V14.01,2013-06-13 14:00:00,
2013-06-13 10:26:00,60.1,58.7,29.61,East,88,1.0,8.0,95,0.18,,---,0.65,30.00,VWS V14.01,2013-06-13 14:26:00,
2013-06-13 10:30:00,60.1,58.7,29.61,East,88,1.0,8.0,95,0.18,,---,0.65,30.00,VWS V14.01,2013-06-13 14:30:00,
2013-06-13 10:56:00,60.4,59.0,29.60,East,99,4.0,11.0,95,0.15,,---,0.70,125.00,VWS V14.01,2013-06-13 14:56:00,
2013-06-13 11:00:00,60.4,59.0,29.60,East,99,4.0,11.0,95,0.15,,---,0.70,125.00,VWS V14.01,2013-06-13 15:00:00,
2013-06-13 11:26:00,60.7,59.0,29.59,NE,49,7.0,15.0,94,0.14,,---,0.75,123.00,VWS V14.01,2013-06-13 15:26:00,
2013-06-13 11:30:00,60.7,59.0,29.59,NE,49,7.0,15.0,94,0.14,,---,0.75,123.00,VWS V14.01,2013-06-13 15:30:00,
2013-06-13 11:56:00,60.3,58.6,29.59,NE,45,10.0,14.0,94,0.22,,---,0.87,111.00,VWS V14.01,2013-06-13 15:56:00,
2013-06-13 12:00:00,60.3,58.6,29.59,NE,45,10.0,14.0,94,0.22,,---,0.87,111.00,VWS V14.01,2013-06-13 16:00:00,
2013-06-13 12:26:00,60.1,58.4,29.59,East,99,4.0,14.0,94,0.23,,---,0.93,60.00,VWS V14.01,2013-06-13 16:26:00,
2013-06-13 12:30:00,60.1,58.4,29.59,East,99,4.0,14.0,94,0.23,,---,0.93,60.00,VWS V14.01,2013-06-13 16:30:00,
2013-06-13 12:56:00,59.9,58.2,29.60,East,84,5.0,14.0,94,0.30,,---,1.05,149.00,VWS V14.01,2013-06-13 16:56:00,
2013-06-13 13:00:00,59.9,58.2,29.60,East,84,5.0,14.0,94,0.30,,---,1.05,149.00,VWS V14.01,2013-06-13 17:00:00,
2013-06-13 13:26:00,59.5,57.8,29.61,ENE,73,7.0,14.0,94,0.24,,---,1.11,123.00,VWS V14.01,2013-06-13 17:26:00,
2013-06-13 13:30:00,59.5,57.8,29.61,ENE,73,7.0,14.0,94,0.24,,---,1.11,123.00,VWS V14.01,2013-06-13 17:30:00,
2013-06-13 13:56:00,59.5,57.8,29.61,NNE,30,5.0,14.0,94,0.20,,---,1.13,121.00,VWS V14.01,2013-06-13 17:56:00,
2013-06-13 14:00:00,59.5,57.8,29.61,NNE,30,5.0,14.0,94,0.20,,---,1.13,121.00,VWS V14.01,2013-06-13 18:00:00,
2013-06-13 14:26:00,59.0,57.0,29.62,ENE,59,4.0,18.0,93,0.08,,---,1.13,114.00,VWS V14.01,2013-06-13 18:26:00,
2013-06-13 14:30:00,59.0,57.0,29.62,ENE,59,4.0,18.0,93,0.08,,---,1.13,114.00,VWS V14.01,2013-06-13 18:30:00,
2013-06-13 14:56:00,58.9,56.9,29.64,ENE,68,3.0,15.0,93,0.02,,---,1.13,72.00,VWS V14.01,2013-06-13 18:56:00,
2013-06-13 15:00:00,58.9,56.9,29.64,ENE,68,3.0,15.0,93,0.02,,---,1.13,72.00,VWS V14.01,2013-06-13 19:00:00,
2013-06-13 15:26:00,58.6,56.9,29.66,NE,46,4.0,15.0,94,0.06,,---,1.19,84.00,VWS V14.01,2013-06-13 19:26:00,
2013-06-13 15:30:00,58.6,56.9,29.66,NE,46,4.0,15.0,94,0.06,,---,1.19,84.00,VWS V14.01,2013-06-13 19:30:00,
2013-06-13 15:56:00,59.1,57.1,29.68,ENE,67,3.0,16.0,93,0.09,,---,1.22,146.00,VWS V14.01,2013-06-13 19:56:00,
2013-06-13 16:00:00,59.1,57.1,29.68,ENE,67,3.0,16.0,93,0.09,,---,1.22,146.00,VWS V14.01,2013-06-13 20:00:00,
2013-06-13 16:26:00,59.5,57.2,29.68,ENE,63,7.0,15.0,92,0.09,,---,1.22,97.00,VWS V14.01,2013-06-13 20:26:00,
2013-06-13 16:30:00,59.5,57.2,29.68,ENE,63,7.0,15.0,92,0.09,,---,1.22,97.00,VWS V14.01,2013-06-13 20:30:00,
2013-06-13 16:56:00,59.6,57.0,29.70,ENE,76,0.0,13.0,91,0.03,,---,1.22,144.00,VWS V14.01,2013-06-13 20:56:00,
2013-06-13 17:00:00,59.6,57.0,29.70,ENE,76,0.0,13.0,91,0.03,,---,1.22,144.00,VWS V14.01,2013-06-13 21:00:00,
2013-06-13 17:26:00,60.0,57.4,29.72,NE,42,2.0,14.0,91,0.00,,---,1.22,134.00,VWS V14.01,2013-06-13 21:26:00,
2013-06-13 17:30:00,60.0,57.4,29.72,NE,42,2.0,14.0,91,0.00,,---,1.22,134.00,VWS V14.01,2013-06-13 21:30:00,
2013-06-13 17:56:00,59.0,56.7,29.73,ENE,59,6.0,13.0,92,0.00,,---,1.22,60.00,VWS V14.01,2013-06-13 21:56:00,
2013-06-13 18:00:00,59.0,56.7,29.73,ENE,59,6.0,13.0,92,0.00,,---,1.22,60.00,VWS V14.01,2013-06-13 22:00:00,
2013-06-13 18:26:00,58.7,56.4,29.74,NE,40,5.0,14.0,92,0.01,,---,1.23,107.00,VWS V14.01,2013-06-13 22:26:00,
2013-06-13 18:30:00,58.7,56.4,29.74,NE,40,5.0,14.0,92,0.01,,---,1.23,107.00,VWS V14.01,2013-06-13 22:30:00,
2013-06-13 18:56:00,59.2,56.6,29.75,NNE,26,0.0,11.0,91,0.01,,---,1.23,67.00,VWS V14.01,2013-06-13 22:56:00,
2013-06-13 19:00:00,59.2,56.6,29.75,NNE,26,0.0,11.0,91,0.01,,---,1.23,67.00,VWS V14.01,2013-06-13 23:00:00,
2013-06-13 19:26:00,59.5,56.6,29.77,NNW,341,3.0,11.0,90,0.01,,---,1.23,62.00,VWS V14.01,2013-06-13 23:26:00,
2013-06-13 19:30:00,59.5,56.6,29.77,NNW,341,3.0,11.0,90,0.01,,---,1.23,62.00,VWS V14.01,2013-06-13 23:30:00,
2013-06-13 19:56:00,59.5,56.6,29.77,NW,324,5.0,9.0,90,0.00,,---,1.23,42.00,VWS V14.01,2013-06-13 23:56:00,
2013-06-13 20:00:00,59.5,56.6,29.77,NW,324,5.0,9.0,90,0.00,,---,1.23,42.00,VWS V14.01,2013-06-14 00:00:00,
2013-06-13 20:26:00,59.3,56.4,29.79,NE,44,2.0,8.0,90,0.00,,---,1.23,19.00,VWS V14.01,2013-06-14 00:26:00,
2013-06-13 20:30:00,59.3,56.4,29.79,NE,44,2.0,8.0,90,0.00,,---,1.23,19.00,VWS V14.01,2013-06-14 00:30:00,
2013-06-13 20:56:00,58.9,56.0,29.80,NNE,22,0.0,7.0,90,0.00,,---,1.23,0.00,VWS V14.01,2013-06-14 00:56:00,
2013-06-13 21:00:00,58.9,56.0,29.80,NNE,22,0.0,7.0,90,0.00,,---,1.23,0.00,VWS V14.01,2013-06-14 01:00:00,
2013-06-13 21:26:00,58.2,55.9,29.80,NNE,14,3.0,4.0,92,0.00,,---,1.23,0.00,VWS V14.01,2013-06-14 01:26:00,
2013-06-13 21:30:00,58.2,55.9,29.80,NNE,14,3.0,4.0,92,0.00,,---,1.23,0.00,VWS V14.01,2013-06-14 01:30:00,
2013-06-13 21:56:00,57.6,55.9,29.80,NNW,344,0.0,5.0,94,0.00,,---,1.23,0.00,VWS V14.01,2013-06-14 01:56:00,
2013-06-13 22:00:00,57.6,55.9,29.80,NNW,344,0.0,5.0,94,0.00,,---,1.23,0.00,VWS V14.01,2013-06-14 02:00:00,
2013-06-13 22:26:00,57.1,55.4,29.81,NW,323,0.0,5.0,94,0.00,,---,1.23,0.00,VWS V14.01,2013-06-14 02:26:00,
2013-06-13 22:30:00,57.1,55.4,29.81,NW,323,0.0,5.0,94,0.00,,---,1.23,0.00,VWS V14.01,2013-06-14 02:30:00,
2013-06-13 22:56:00,56.4,55.0,29.82,NW,323,0.0,1.0,95,0.00,,---,1.23,0.00,VWS V14.01,2013-06-14 02:56:00,
2013-06-13 23:00:00,56.4,55.0,29.82,NW,323,0.0,1.0,95,0.00,,---,1.23,0.00,VWS V14.01,2013-06-14 03:00:00,
2013-06-13 23:26:00,55.8,54.4,29.82,NW,323,0.0,3.0,95,0.00,,---,1.23,0.00,VWS V14.01,2013-06-14 03:26:00,
2013-06-13 23:30:00,55.8,54.4,29.82,NW,323,0.0,3.0,95,0.00,,---,1.23,0.00,VWS V14.01,2013-06-14 03:30:00,
2013-06-13 23:56:00,55.4,54.3,29.83,NW,320,1.0,3.0,96,0.00,,---,1.23,0.00,VWS V14.01,2013-06-14 03:56:00,